VTK605 UHMP-UHML
Flight info
| Callsign | VTK605 |
|---|---|
| Flight time | 2h 23m |
| Altitude | 19000 |
| Route | NEKON R351 STENA |
| Aircraft | C414/L-SBDFGRY/S |
Departure
| Time | 2026-04-30 08:49 |
|---|---|
| Airport | Pevek Airport (UHMP) |
Arrival
| Time | 2026-04-30 11:13 |
|---|---|
| Airport | Lavrentiya Airport (UHML) |
| Time | Latitude | Longitude | Altitude | Speed | Heading |
|---|---|---|---|---|---|
| 2026-04-30 08:44 | 69.78888 | 170.60068 | 24 ft | 0 kts | 85° |
| 2026-04-30 08:45 | 69.78888 | 170.60072 | 24 ft | 2 kts | 90° |
| 2026-04-30 08:46 | 69.78858 | 170.60059 | 24 ft | 11 kts | 246° |
| 2026-04-30 08:46 | 69.78855 | 170.60025 | 24 ft | 0 kts | 259° |
| 2026-04-30 08:46 | 69.78833 | 170.59783 | 24 ft | 20 kts | 256° |
| 2026-04-30 08:46 | 69.78805 | 170.59458 | 24 ft | 10 kts | 234° |
| 2026-04-30 08:47 | 69.78756 | 170.59377 | 24 ft | 6 kts | 168° |
| 2026-04-30 08:47 | 69.78755 | 170.59378 | 24 ft | 0 kts | 168° |
| 2026-04-30 08:47 | 69.78724 | 170.59399 | 23 ft | 24 kts | 166° |
| 2026-04-30 08:48 | 69.78367 | 170.59638 | 23 ft | 78 kts | 166° |
| 2026-04-30 08:48 | 69.77722 | 170.60103 | 45 ft | 110 kts | 165° |
| 2026-04-30 08:48 | 69.76942 | 170.60799 | 207 ft | 121 kts | 162° |
| 2026-04-30 08:48 | 69.76135 | 170.61529 | 391 ft | 125 kts | 164° |
| 2026-04-30 08:49 | 69.75262 | 170.62106 | 590 ft | 133 kts | 167° |
| 2026-04-30 08:49 | 69.74319 | 170.62728 | 805 ft | 147 kts | 168° |
| 2026-04-30 08:49 | 69.73286 | 170.63387 | 1036 ft | 157 kts | 168° |
| 2026-04-30 08:49 | 69.72192 | 170.64077 | 1274 ft | 164 kts | 168° |
| 2026-04-30 08:50 | 69.71059 | 170.64787 | 1485 ft | 169 kts | 168° |
| 2026-04-30 08:50 | 69.69899 | 170.65513 | 1691 ft | 172 kts | 168° |
| 2026-04-30 08:50 | 69.68718 | 170.66249 | 1892 ft | 175 kts | 168° |
| 2026-04-30 08:50 | 69.67521 | 170.66995 | 2090 ft | 177 kts | 168° |
| 2026-04-30 08:51 | 69.66310 | 170.67751 | 2290 ft | 178 kts | 168° |
| 2026-04-30 08:51 | 69.65100 | 170.68555 | 2485 ft | 179 kts | 167° |
| 2026-04-30 08:51 | 69.63881 | 170.69376 | 2677 ft | 180 kts | 167° |
| 2026-04-30 08:51 | 69.62700 | 170.70164 | 3146 ft | 164 kts | 167° |
| 2026-04-30 08:52 | 69.61607 | 170.70889 | 3535 ft | 162 kts | 166° |
| 2026-04-30 08:52 | 69.60499 | 170.71635 | 3825 ft | 164 kts | 165° |
| 2026-04-30 08:52 | 69.59551 | 170.73286 | 4098 ft | 163 kts | 123° |
| 2026-04-30 08:52 | 69.59350 | 170.76369 | 4372 ft | 162 kts | 77° |
| 2026-04-30 08:53 | 69.59748 | 170.79378 | 4656 ft | 162 kts | 66° |
| 2026-04-30 08:53 | 69.60183 | 170.82387 | 4927 ft | 164 kts | 68° |
| 2026-04-30 08:53 | 69.60568 | 170.85463 | 5206 ft | 164 kts | 70° |
| 2026-04-30 08:53 | 69.60938 | 170.88569 | 5491 ft | 165 kts | 70° |
| 2026-04-30 08:54 | 69.61305 | 170.91691 | 5765 ft | 166 kts | 70° |
| 2026-04-30 08:54 | 69.61673 | 170.94829 | 6031 ft | 166 kts | 70° |
| 2026-04-30 08:54 | 69.62042 | 170.97974 | 6303 ft | 166 kts | 70° |
| 2026-04-30 08:54 | 69.62410 | 171.01131 | 6545 ft | 168 kts | 70° |
| 2026-04-30 08:55 | 69.62780 | 171.04309 | 6829 ft | 168 kts | 70° |
| 2026-04-30 08:55 | 69.63151 | 171.07497 | 7105 ft | 169 kts | 70° |
| 2026-04-30 08:55 | 69.63522 | 171.10701 | 7362 ft | 169 kts | 70° |
| 2026-04-30 08:55 | 69.63896 | 171.13921 | 7622 ft | 170 kts | 70° |
| 2026-04-30 08:56 | 69.64269 | 171.17143 | 7885 ft | 171 kts | 70° |
| 2026-04-30 08:56 | 69.64644 | 171.20399 | 8148 ft | 172 kts | 70° |
| 2026-04-30 08:56 | 69.65020 | 171.23665 | 8418 ft | 172 kts | 71° |
| 2026-04-30 08:56 | 69.65397 | 171.26946 | 8690 ft | 173 kts | 71° |
| 2026-04-30 08:57 | 69.65775 | 171.30238 | 8965 ft | 174 kts | 71° |
| 2026-04-30 08:57 | 69.66155 | 171.33553 | 9228 ft | 175 kts | 71° |
| 2026-04-30 08:57 | 69.66534 | 171.36875 | 9481 ft | 176 kts | 71° |
| 2026-04-30 08:57 | 69.66915 | 171.40216 | 9742 ft | 176 kts | 71° |
| 2026-04-30 08:58 | 69.67297 | 171.43575 | 9995 ft | 177 kts | 71° |
| 2026-04-30 08:58 | 69.67681 | 171.46949 | 10238 ft | 178 kts | 71° |
| 2026-04-30 08:58 | 69.68063 | 171.50335 | 10476 ft | 178 kts | 71° |
| 2026-04-30 08:58 | 69.68448 | 171.53731 | 10721 ft | 179 kts | 71° |
| 2026-04-30 08:59 | 69.68836 | 171.57154 | 10964 ft | 180 kts | 71° |
| 2026-04-30 08:59 | 69.69222 | 171.60584 | 11197 ft | 181 kts | 71° |
| 2026-04-30 08:59 | 69.69608 | 171.64030 | 11430 ft | 181 kts | 71° |
| 2026-04-30 08:59 | 69.69995 | 171.67491 | 11679 ft | 182 kts | 71° |
| 2026-04-30 09:00 | 69.70385 | 171.70964 | 11933 ft | 182 kts | 72° |
| 2026-04-30 09:00 | 69.70766 | 171.74393 | 12194 ft | 181 kts | 72° |
| 2026-04-30 09:00 | 69.70899 | 171.77986 | 12426 ft | 182 kts | 97° |
| 2026-04-30 09:00 | 69.70657 | 171.81589 | 12650 ft | 184 kts | 100° |
| 2026-04-30 09:01 | 69.70420 | 171.85204 | 12886 ft | 184 kts | 100° |
| 2026-04-30 09:01 | 69.70178 | 171.88835 | 13125 ft | 185 kts | 100° |
| 2026-04-30 09:03 | 69.68170 | 172.18269 | 14864 ft | 190 kts | 101° |
| 2026-04-30 09:03 | 69.67913 | 172.21983 | 15085 ft | 190 kts | 101° |
| 2026-04-30 09:03 | 69.67652 | 172.25738 | 15269 ft | 192 kts | 101° |
| 2026-04-30 09:04 | 69.67389 | 172.29516 | 15474 ft | 192 kts | 101° |
| 2026-04-30 09:04 | 69.67126 | 172.33291 | 15692 ft | 192 kts | 101° |
| 2026-04-30 09:04 | 69.66862 | 172.37064 | 15893 ft | 194 kts | 101° |
| 2026-04-30 09:04 | 69.66594 | 172.40869 | 16083 ft | 195 kts | 101° |
| 2026-04-30 09:05 | 69.66324 | 172.44693 | 16292 ft | 195 kts | 101° |
| 2026-04-30 09:05 | 69.66054 | 172.48505 | 16507 ft | 194 kts | 101° |
| 2026-04-30 09:05 | 69.65783 | 172.52313 | 16683 ft | 196 kts | 101° |
| 2026-04-30 09:05 | 69.65508 | 172.56179 | 16878 ft | 197 kts | 101° |
| 2026-04-30 09:06 | 69.65231 | 172.60049 | 17079 ft | 198 kts | 101° |
| 2026-04-30 09:06 | 69.64954 | 172.63913 | 17297 ft | 197 kts | 101° |
| 2026-04-30 09:06 | 69.64675 | 172.67789 | 17467 ft | 199 kts | 101° |
| 2026-04-30 09:06 | 69.64392 | 172.71700 | 17645 ft | 200 kts | 101° |
| 2026-04-30 09:07 | 69.64109 | 172.75605 | 17847 ft | 200 kts | 102° |
| 2026-04-30 09:07 | 69.63825 | 172.79525 | 18041 ft | 201 kts | 101° |
| 2026-04-30 09:07 | 69.63537 | 172.83477 | 18209 ft | 203 kts | 101° |
| 2026-04-30 09:07 | 69.63245 | 172.87445 | 18377 ft | 203 kts | 101° |
| 2026-04-30 09:08 | 69.62954 | 172.91418 | 18551 ft | 203 kts | 101° |
| 2026-04-30 09:08 | 69.62661 | 172.95387 | 18701 ft | 204 kts | 101° |
| 2026-04-30 09:08 | 69.62365 | 172.99386 | 18849 ft | 205 kts | 101° |
| 2026-04-30 09:08 | 69.62066 | 173.03417 | 18935 ft | 209 kts | 101° |
| 2026-04-30 09:09 | 69.61761 | 173.07517 | 18944 ft | 216 kts | 102° |
| 2026-04-30 09:09 | 69.61442 | 173.11787 | 18954 ft | 221 kts | 102° |
| 2026-04-30 09:09 | 69.61116 | 173.16127 | 18948 ft | 224 kts | 101° |
| 2026-04-30 09:09 | 69.60785 | 173.20519 | 18946 ft | 226 kts | 101° |
| 2026-04-30 09:10 | 69.60451 | 173.24940 | 18953 ft | 228 kts | 101° |
| 2026-04-30 09:10 | 69.60113 | 173.29399 | 18954 ft | 229 kts | 101° |
| 2026-04-30 09:10 | 69.59774 | 173.33865 | 18955 ft | 230 kts | 101° |
| 2026-04-30 09:10 | 69.59431 | 173.38353 | 18951 ft | 231 kts | 102° |
| 2026-04-30 09:11 | 69.59086 | 173.42852 | 18953 ft | 231 kts | 102° |
| 2026-04-30 09:11 | 69.58739 | 173.47361 | 18948 ft | 232 kts | 101° |
| 2026-04-30 09:11 | 69.58396 | 173.51814 | 18952 ft | 232 kts | 102° |
| 2026-04-30 09:11 | 69.58043 | 173.56369 | 18953 ft | 232 kts | 102° |
| 2026-04-30 09:12 | 69.57692 | 173.60880 | 18950 ft | 232 kts | 102° |
| 2026-04-30 09:12 | 69.57345 | 173.65338 | 18951 ft | 232 kts | 102° |
| 2026-04-30 09:12 | 69.56992 | 173.69847 | 18950 ft | 232 kts | 102° |
| 2026-04-30 09:12 | 69.56632 | 173.74403 | 18951 ft | 232 kts | 102° |
| 2026-04-30 09:13 | 69.56282 | 173.78851 | 18951 ft | 232 kts | 102° |
| 2026-04-30 09:13 | 69.55926 | 173.83349 | 18952 ft | 231 kts | 102° |
| 2026-04-30 09:13 | 69.55570 | 173.87830 | 18948 ft | 231 kts | 102° |
| 2026-04-30 09:13 | 69.55211 | 173.92324 | 18943 ft | 232 kts | 102° |
| 2026-04-30 09:14 | 69.54851 | 173.96821 | 18942 ft | 232 kts | 102° |
| 2026-04-30 09:14 | 69.54491 | 174.01308 | 18944 ft | 232 kts | 102° |
| 2026-04-30 09:14 | 69.54128 | 174.05811 | 18947 ft | 232 kts | 102° |
| 2026-04-30 09:14 | 69.53765 | 174.10302 | 18946 ft | 232 kts | 102° |
| 2026-04-30 09:15 | 69.53400 | 174.14794 | 18949 ft | 232 kts | 102° |
| 2026-04-30 09:15 | 69.53034 | 174.19292 | 18949 ft | 232 kts | 102° |
| 2026-04-30 09:15 | 69.52667 | 174.23783 | 18950 ft | 232 kts | 102° |
| 2026-04-30 09:15 | 69.52298 | 174.28277 | 18952 ft | 233 kts | 102° |
| 2026-04-30 09:16 | 69.51927 | 174.32775 | 18949 ft | 232 kts | 102° |
| 2026-04-30 09:16 | 69.51558 | 174.37266 | 18950 ft | 233 kts | 102° |
| 2026-04-30 09:16 | 69.51185 | 174.41759 | 18950 ft | 232 kts | 102° |
| 2026-04-30 09:16 | 69.50812 | 174.46252 | 18950 ft | 233 kts | 102° |
| 2026-04-30 09:17 | 69.50441 | 174.50685 | 18950 ft | 233 kts | 102° |
| 2026-04-30 09:17 | 69.50064 | 174.55191 | 18950 ft | 233 kts | 102° |
| 2026-04-30 09:17 | 69.49687 | 174.59685 | 18949 ft | 233 kts | 102° |
| 2026-04-30 09:17 | 69.49308 | 174.64171 | 18947 ft | 232 kts | 102° |
| 2026-04-30 09:18 | 69.48929 | 174.68649 | 18949 ft | 232 kts | 102° |
| 2026-04-30 09:18 | 69.48550 | 174.73127 | 18949 ft | 232 kts | 102° |
| 2026-04-30 09:18 | 69.48169 | 174.77603 | 18947 ft | 232 kts | 102° |
| 2026-04-30 09:18 | 69.47915 | 174.80572 | 18949 ft | 232 kts | 102° |
| 2026-04-30 09:19 | 69.47531 | 174.85049 | 18949 ft | 232 kts | 103° |
| 2026-04-30 09:19 | 69.47148 | 174.89511 | 18954 ft | 232 kts | 102° |
| 2026-04-30 09:19 | 69.46763 | 174.93982 | 18947 ft | 232 kts | 102° |
| 2026-04-30 09:19 | 69.46377 | 174.98436 | 18947 ft | 231 kts | 102° |
| 2026-04-30 09:20 | 69.45993 | 175.02858 | 18948 ft | 229 kts | 102° |
| 2026-04-30 09:20 | 69.45611 | 175.07253 | 18943 ft | 228 kts | 102° |
| 2026-04-30 09:20 | 69.45230 | 175.11618 | 18940 ft | 227 kts | 102° |
| 2026-04-30 09:20 | 69.44849 | 175.15971 | 18939 ft | 226 kts | 102° |
| 2026-04-30 09:21 | 69.44467 | 175.20309 | 18938 ft | 226 kts | 102° |
| 2026-04-30 09:21 | 69.44084 | 175.24648 | 18937 ft | 226 kts | 102° |
| 2026-04-30 09:21 | 69.43699 | 175.29002 | 18938 ft | 226 kts | 102° |
| 2026-04-30 09:21 | 69.43315 | 175.33325 | 18938 ft | 226 kts | 102° |
| 2026-04-30 09:22 | 69.42929 | 175.37671 | 18940 ft | 226 kts | 102° |
| 2026-04-30 09:22 | 69.42543 | 175.41990 | 18940 ft | 226 kts | 102° |
| 2026-04-30 09:22 | 69.42156 | 175.46312 | 18940 ft | 226 kts | 102° |
| 2026-04-30 09:22 | 69.41768 | 175.50626 | 18940 ft | 225 kts | 102° |
| 2026-04-30 09:23 | 69.41383 | 175.54891 | 18934 ft | 226 kts | 102° |
| 2026-04-30 09:23 | 69.40988 | 175.59261 | 18934 ft | 225 kts | 102° |
| 2026-04-30 09:23 | 69.40602 | 175.63518 | 18934 ft | 225 kts | 102° |
| 2026-04-30 09:23 | 69.40206 | 175.67879 | 18934 ft | 225 kts | 102° |
| 2026-04-30 09:24 | 69.39812 | 175.72192 | 18937 ft | 225 kts | 102° |
| 2026-04-30 09:24 | 69.39416 | 175.76500 | 18937 ft | 226 kts | 102° |
| 2026-04-30 09:24 | 69.39020 | 175.80815 | 18937 ft | 226 kts | 102° |
| 2026-04-30 09:24 | 69.38628 | 175.85066 | 18937 ft | 226 kts | 102° |
| 2026-04-30 09:25 | 69.38226 | 175.89423 | 18931 ft | 226 kts | 102° |
| 2026-04-30 09:25 | 69.37827 | 175.93730 | 18939 ft | 226 kts | 102° |
| 2026-04-30 09:25 | 69.37427 | 175.98044 | 18939 ft | 225 kts | 102° |
| 2026-04-30 09:25 | 69.37031 | 176.02276 | 18939 ft | 225 kts | 102° |
| 2026-04-30 09:26 | 69.36631 | 176.06557 | 18934 ft | 224 kts | 102° |
| 2026-04-30 09:26 | 69.36230 | 176.10832 | 18933 ft | 224 kts | 102° |
| 2026-04-30 09:26 | 69.35827 | 176.15116 | 18933 ft | 224 kts | 102° |
| 2026-04-30 09:26 | 69.35425 | 176.19384 | 18933 ft | 224 kts | 102° |
| 2026-04-30 09:27 | 69.35021 | 176.23640 | 18932 ft | 224 kts | 102° |
| 2026-04-30 09:27 | 69.34615 | 176.27903 | 18933 ft | 224 kts | 102° |
| 2026-04-30 09:27 | 69.34210 | 176.32163 | 18932 ft | 224 kts | 102° |
| 2026-04-30 09:27 | 69.33805 | 176.36415 | 18939 ft | 224 kts | 102° |
| 2026-04-30 09:28 | 69.33397 | 176.40673 | 18935 ft | 224 kts | 102° |
| 2026-04-30 09:28 | 69.32988 | 176.44926 | 18935 ft | 224 kts | 102° |
| 2026-04-30 09:28 | 69.32578 | 176.49180 | 18934 ft | 224 kts | 102° |
| 2026-04-30 09:28 | 69.32168 | 176.53422 | 18934 ft | 223 kts | 102° |
| 2026-04-30 09:29 | 69.31758 | 176.57659 | 18936 ft | 223 kts | 102° |
| 2026-04-30 09:29 | 69.31346 | 176.61888 | 18936 ft | 223 kts | 102° |
| 2026-04-30 09:29 | 69.30935 | 176.66116 | 18936 ft | 223 kts | 102° |
| 2026-04-30 09:29 | 69.30521 | 176.70351 | 18935 ft | 223 kts | 103° |
| 2026-04-30 09:30 | 69.30106 | 176.74574 | 18935 ft | 223 kts | 103° |
| 2026-04-30 09:30 | 69.29692 | 176.78792 | 18941 ft | 223 kts | 103° |
| 2026-04-30 09:30 | 69.29276 | 176.83018 | 18940 ft | 223 kts | 103° |
| 2026-04-30 09:30 | 69.28858 | 176.87235 | 18942 ft | 223 kts | 103° |
| 2026-04-30 09:31 | 69.28440 | 176.91454 | 18941 ft | 223 kts | 103° |
| 2026-04-30 09:31 | 69.28020 | 176.95674 | 18941 ft | 223 kts | 103° |
| 2026-04-30 09:31 | 69.27600 | 176.99889 | 18943 ft | 223 kts | 103° |
| 2026-04-30 09:31 | 69.27178 | 177.04103 | 18943 ft | 223 kts | 103° |
| 2026-04-30 09:32 | 69.26756 | 177.08308 | 18943 ft | 223 kts | 103° |
| 2026-04-30 09:32 | 69.26338 | 177.12466 | 18942 ft | 223 kts | 104° |
| 2026-04-30 09:32 | 69.25914 | 177.16668 | 18939 ft | 223 kts | 104° |
| 2026-04-30 09:32 | 69.25489 | 177.20870 | 18947 ft | 223 kts | 104° |
| 2026-04-30 09:33 | 69.25063 | 177.25073 | 18944 ft | 223 kts | 104° |
| 2026-04-30 09:33 | 69.24635 | 177.29284 | 18946 ft | 223 kts | 104° |
| 2026-04-30 09:33 | 69.24206 | 177.33490 | 18944 ft | 223 kts | 104° |
| 2026-04-30 09:33 | 69.23776 | 177.37690 | 18945 ft | 223 kts | 104° |
| 2026-04-30 09:34 | 69.23346 | 177.41879 | 18943 ft | 223 kts | 104° |
| 2026-04-30 09:34 | 69.22914 | 177.46081 | 18942 ft | 223 kts | 104° |
| 2026-04-30 09:34 | 69.22483 | 177.50263 | 18942 ft | 223 kts | 104° |
| 2026-04-30 09:34 | 69.22049 | 177.54460 | 18942 ft | 223 kts | 104° |
| 2026-04-30 09:35 | 69.21615 | 177.58644 | 18944 ft | 223 kts | 104° |
| 2026-04-30 09:35 | 69.21180 | 177.62831 | 18943 ft | 223 kts | 104° |
| 2026-04-30 09:35 | 69.20744 | 177.67016 | 18944 ft | 223 kts | 104° |
| 2026-04-30 09:35 | 69.20312 | 177.71149 | 18943 ft | 223 kts | 104° |
| 2026-04-30 09:36 | 69.19874 | 177.75321 | 18944 ft | 223 kts | 104° |
| 2026-04-30 09:36 | 69.19436 | 177.79494 | 18945 ft | 223 kts | 104° |
| 2026-04-30 09:36 | 69.18996 | 177.83667 | 18945 ft | 223 kts | 104° |
| 2026-04-30 09:36 | 69.18554 | 177.87842 | 18945 ft | 222 kts | 104° |
| 2026-04-30 09:37 | 69.18113 | 177.92010 | 18941 ft | 222 kts | 104° |
| 2026-04-30 09:37 | 69.17671 | 177.96172 | 18943 ft | 223 kts | 104° |
| 2026-04-30 09:37 | 69.17227 | 178.00342 | 18950 ft | 223 kts | 107° |
| 2026-04-30 09:37 | 69.16780 | 178.04514 | 18950 ft | 222 kts | 107° |
| 2026-04-30 09:38 | 69.16335 | 178.08676 | 18951 ft | 222 kts | 107° |
| 2026-04-30 09:38 | 69.15889 | 178.12825 | 18950 ft | 221 kts | 107° |
| 2026-04-30 09:38 | 69.15446 | 178.16947 | 18950 ft | 221 kts | 107° |
| 2026-04-30 09:38 | 69.15000 | 178.21078 | 18949 ft | 221 kts | 107° |
| 2026-04-30 09:39 | 69.14554 | 178.25199 | 18949 ft | 220 kts | 107° |
| 2026-04-30 09:39 | 69.14108 | 178.29305 | 18948 ft | 220 kts | 107° |
| 2026-04-30 09:39 | 69.13660 | 178.33419 | 18948 ft | 220 kts | 107° |
| 2026-04-30 09:39 | 69.13211 | 178.37540 | 18950 ft | 220 kts | 108° |
| 2026-04-30 09:40 | 69.12761 | 178.41654 | 18949 ft | 220 kts | 108° |
| 2026-04-30 09:40 | 69.12310 | 178.45762 | 18949 ft | 221 kts | 108° |
| 2026-04-30 09:40 | 69.11859 | 178.49869 | 18950 ft | 221 kts | 108° |
| 2026-04-30 09:40 | 69.11405 | 178.53983 | 18950 ft | 221 kts | 108° |
| 2026-04-30 09:41 | 69.10952 | 178.58087 | 18953 ft | 221 kts | 108° |
| 2026-04-30 09:41 | 69.10496 | 178.62201 | 18952 ft | 221 kts | 108° |
| 2026-04-30 09:41 | 69.10040 | 178.66311 | 18953 ft | 221 kts | 108° |
| 2026-04-30 09:41 | 69.09588 | 178.70367 | 18952 ft | 221 kts | 108° |
| 2026-04-30 09:42 | 69.09124 | 178.74518 | 18950 ft | 221 kts | 108° |
| 2026-04-30 09:42 | 69.08672 | 178.78562 | 18950 ft | 220 kts | 108° |
| 2026-04-30 09:42 | 69.08212 | 178.82665 | 18950 ft | 221 kts | 108° |
| 2026-04-30 09:42 | 69.07751 | 178.86755 | 18950 ft | 221 kts | 108° |
| 2026-04-30 09:43 | 69.07289 | 178.90848 | 18953 ft | 221 kts | 108° |
| 2026-04-30 09:43 | 69.06827 | 178.94940 | 18952 ft | 221 kts | 108° |
| 2026-04-30 09:43 | 69.06363 | 178.99033 | 18953 ft | 221 kts | 108° |
| 2026-04-30 09:43 | 69.05898 | 179.03120 | 18947 ft | 220 kts | 108° |
| 2026-04-30 09:44 | 69.05434 | 179.07199 | 18944 ft | 220 kts | 108° |
| 2026-04-30 09:44 | 69.04967 | 179.11284 | 18944 ft | 220 kts | 108° |
| 2026-04-30 09:44 | 69.04501 | 179.15361 | 18945 ft | 221 kts | 108° |
| 2026-04-30 09:44 | 69.04030 | 179.19456 | 18944 ft | 221 kts | 109° |
| 2026-04-30 09:45 | 69.03560 | 179.23534 | 18948 ft | 221 kts | 108° |
| 2026-04-30 09:45 | 69.03090 | 179.27616 | 18947 ft | 220 kts | 108° |
| 2026-04-30 09:45 | 69.02620 | 179.31682 | 18947 ft | 220 kts | 109° |
| 2026-04-30 09:45 | 69.02147 | 179.35757 | 18947 ft | 220 kts | 109° |
| 2026-04-30 09:46 | 69.01675 | 179.39817 | 18948 ft | 220 kts | 109° |
| 2026-04-30 09:46 | 69.01202 | 179.43879 | 18948 ft | 220 kts | 109° |
| 2026-04-30 09:46 | 69.00726 | 179.47952 | 18947 ft | 220 kts | 109° |
| 2026-04-30 09:46 | 69.00252 | 179.52006 | 18947 ft | 220 kts | 109° |
| 2026-04-30 09:47 | 68.99774 | 179.56066 | 18947 ft | 220 kts | 109° |
| 2026-04-30 09:47 | 68.99297 | 179.60128 | 18947 ft | 220 kts | 109° |
| 2026-04-30 09:47 | 68.98820 | 179.64177 | 18952 ft | 220 kts | 109° |
| 2026-04-30 09:47 | 68.98341 | 179.68223 | 18953 ft | 220 kts | 109° |
| 2026-04-30 09:48 | 68.97861 | 179.72274 | 18949 ft | 220 kts | 109° |
| 2026-04-30 09:48 | 68.97385 | 179.76274 | 18949 ft | 220 kts | 109° |
| 2026-04-30 09:48 | 68.96903 | 179.80323 | 18949 ft | 220 kts | 109° |
| 2026-04-30 09:48 | 68.96420 | 179.84370 | 18949 ft | 220 kts | 109° |
| 2026-04-30 09:49 | 68.95937 | 179.88410 | 18953 ft | 220 kts | 109° |
| 2026-04-30 09:49 | 68.95451 | 179.92459 | 18953 ft | 220 kts | 109° |
| 2026-04-30 09:49 | 68.94966 | 179.96491 | 18952 ft | 220 kts | 109° |
| 2026-04-30 09:49 | 68.94479 | -179.99475 | 18955 ft | 220 kts | 109° |
| 2026-04-30 09:50 | 68.93993 | -179.95453 | 18950 ft | 220 kts | 109° |
| 2026-04-30 09:50 | 68.93505 | -179.91420 | 18951 ft | 220 kts | 109° |
| 2026-04-30 09:50 | 68.93017 | -179.87399 | 18951 ft | 219 kts | 109° |
| 2026-04-30 09:50 | 68.92528 | -179.83378 | 18951 ft | 219 kts | 109° |
| 2026-04-30 09:51 | 68.92043 | -179.79409 | 18951 ft | 219 kts | 109° |
| 2026-04-30 09:51 | 68.91546 | -179.75347 | 18951 ft | 220 kts | 109° |
| 2026-04-30 09:51 | 68.91060 | -179.71380 | 18951 ft | 220 kts | 109° |
| 2026-04-30 09:51 | 68.90568 | -179.67369 | 18951 ft | 220 kts | 109° |
| 2026-04-30 09:52 | 68.90074 | -179.63364 | 18951 ft | 220 kts | 109° |
| 2026-04-30 09:52 | 68.89579 | -179.59350 | 18951 ft | 220 kts | 109° |
| 2026-04-30 09:52 | 68.89083 | -179.55343 | 18951 ft | 219 kts | 109° |
| 2026-04-30 09:52 | 68.88586 | -179.51335 | 18951 ft | 220 kts | 109° |
| 2026-04-30 09:53 | 68.88089 | -179.47337 | 18951 ft | 219 kts | 109° |
| 2026-04-30 09:53 | 68.87591 | -179.43344 | 18951 ft | 220 kts | 109° |
| 2026-04-30 09:53 | 68.87091 | -179.39350 | 18951 ft | 219 kts | 110° |
| 2026-04-30 09:53 | 68.86335 | -179.35712 | 18953 ft | 219 kts | 130° |
| 2026-04-30 09:54 | 68.85318 | -179.32592 | 18958 ft | 219 kts | 131° |
| 2026-04-30 09:54 | 68.84303 | -179.29434 | 18959 ft | 219 kts | 131° |
| 2026-04-30 09:54 | 68.83290 | -179.26291 | 18960 ft | 219 kts | 131° |
| 2026-04-30 09:54 | 68.82274 | -179.23152 | 18960 ft | 219 kts | 131° |
| 2026-04-30 09:55 | 68.81258 | -179.20016 | 18960 ft | 219 kts | 131° |
| 2026-04-30 09:55 | 68.80240 | -179.16880 | 18960 ft | 219 kts | 131° |
| 2026-04-30 09:55 | 68.79221 | -179.13745 | 18959 ft | 219 kts | 131° |
| 2026-04-30 09:55 | 68.78199 | -179.10606 | 18959 ft | 219 kts | 131° |
| 2026-04-30 09:56 | 68.77179 | -179.07477 | 18959 ft | 219 kts | 131° |
| 2026-04-30 09:56 | 68.76157 | -179.04348 | 18959 ft | 219 kts | 131° |
| 2026-04-30 09:56 | 68.75134 | -179.01218 | 18959 ft | 220 kts | 131° |
| 2026-04-30 09:56 | 68.74111 | -178.98096 | 18959 ft | 220 kts | 131° |
| 2026-04-30 09:57 | 68.73088 | -178.94973 | 18960 ft | 220 kts | 131° |
| 2026-04-30 09:57 | 68.72062 | -178.91848 | 18957 ft | 219 kts | 132° |
| 2026-04-30 09:57 | 68.71038 | -178.88738 | 18957 ft | 219 kts | 132° |
| 2026-04-30 09:57 | 68.70013 | -178.85626 | 18957 ft | 219 kts | 132° |
| 2026-04-30 09:58 | 68.68988 | -178.82516 | 18957 ft | 219 kts | 132° |
| 2026-04-30 09:58 | 68.68309 | -178.80463 | 18960 ft | 219 kts | 132° |
| 2026-04-30 09:58 | 68.67284 | -178.77361 | 18960 ft | 219 kts | 132° |
| 2026-04-30 09:58 | 68.66252 | -178.74245 | 18960 ft | 220 kts | 132° |
| 2026-04-30 09:59 | 68.64197 | -178.68057 | 18960 ft | 219 kts | 132° |
| 2026-04-30 09:59 | 68.62135 | -178.61858 | 18960 ft | 220 kts | 132° |
| 2026-04-30 10:00 | 68.60072 | -178.55680 | 18959 ft | 219 kts | 132° |
| 2026-04-30 10:00 | 68.59041 | -178.52600 | 18960 ft | 219 kts | 132° |
| 2026-04-30 10:01 | 68.56978 | -178.46446 | 18961 ft | 219 kts | 132° |
| 2026-04-30 10:01 | 68.55959 | -178.43414 | 18960 ft | 219 kts | 132° |
| 2026-04-30 10:01 | 68.54914 | -178.40307 | 18960 ft | 219 kts | 132° |
| 2026-04-30 10:02 | 68.52856 | -178.34210 | 18960 ft | 219 kts | 132° |
| 2026-04-30 10:02 | 68.51821 | -178.31146 | 18960 ft | 219 kts | 132° |
| 2026-04-30 10:02 | 68.50787 | -178.28089 | 18960 ft | 219 kts | 132° |
| 2026-04-30 10:02 | 68.49750 | -178.25027 | 18960 ft | 219 kts | 132° |
| 2026-04-30 10:03 | 68.48718 | -178.21961 | 18960 ft | 219 kts | 132° |
| 2026-04-30 10:03 | 68.47685 | -178.18897 | 18960 ft | 219 kts | 132° |
| 2026-04-30 10:03 | 68.46653 | -178.15841 | 18960 ft | 219 kts | 132° |
| 2026-04-30 10:03 | 68.45620 | -178.12790 | 18960 ft | 219 kts | 132° |
| 2026-04-30 10:04 | 68.44583 | -178.09731 | 18957 ft | 219 kts | 132° |
| 2026-04-30 10:04 | 68.43549 | -178.06685 | 18955 ft | 219 kts | 132° |
| 2026-04-30 10:04 | 68.42515 | -178.03642 | 18953 ft | 219 kts | 133° |
| 2026-04-30 10:04 | 68.41481 | -178.00605 | 18953 ft | 219 kts | 133° |
| 2026-04-30 10:05 | 68.40446 | -177.97570 | 18953 ft | 219 kts | 133° |
| 2026-04-30 10:05 | 68.39411 | -177.94538 | 18953 ft | 219 kts | 133° |
| 2026-04-30 10:05 | 68.38389 | -177.91548 | 18953 ft | 219 kts | 133° |
| 2026-04-30 10:05 | 68.37342 | -177.88491 | 18953 ft | 219 kts | 133° |
| 2026-04-30 10:06 | 68.36320 | -177.85508 | 18952 ft | 219 kts | 133° |
| 2026-04-30 10:06 | 68.35285 | -177.82496 | 18952 ft | 219 kts | 133° |
| 2026-04-30 10:06 | 68.34249 | -177.79483 | 18952 ft | 219 kts | 133° |
| 2026-04-30 10:06 | 68.33209 | -177.76468 | 18952 ft | 219 kts | 133° |
| 2026-04-30 10:07 | 68.32172 | -177.73456 | 18953 ft | 219 kts | 133° |
| 2026-04-30 10:07 | 68.31134 | -177.70445 | 18953 ft | 219 kts | 133° |
| 2026-04-30 10:07 | 68.30098 | -177.67453 | 18950 ft | 218 kts | 133° |
| 2026-04-30 10:07 | 68.29047 | -177.64416 | 18950 ft | 218 kts | 133° |
| 2026-04-30 10:08 | 68.28024 | -177.61465 | 18951 ft | 218 kts | 133° |
| 2026-04-30 10:08 | 68.26981 | -177.58465 | 18950 ft | 218 kts | 133° |
| 2026-04-30 10:08 | 68.25942 | -177.55479 | 18950 ft | 218 kts | 133° |
| 2026-04-30 10:08 | 68.24902 | -177.52491 | 18951 ft | 219 kts | 133° |
| 2026-04-30 10:09 | 68.23859 | -177.49504 | 18947 ft | 218 kts | 133° |
| 2026-04-30 10:09 | 68.22820 | -177.46529 | 18947 ft | 218 kts | 133° |
| 2026-04-30 10:09 | 68.21777 | -177.43546 | 18947 ft | 219 kts | 133° |
| 2026-04-30 10:09 | 68.20732 | -177.40562 | 18947 ft | 219 kts | 133° |
| 2026-04-30 10:10 | 68.19687 | -177.37585 | 18950 ft | 219 kts | 133° |
| 2026-04-30 10:10 | 68.18643 | -177.34616 | 18955 ft | 219 kts | 133° |
| 2026-04-30 10:10 | 68.17596 | -177.31639 | 18943 ft | 219 kts | 133° |
| 2026-04-30 10:10 | 68.16551 | -177.28671 | 18943 ft | 219 kts | 133° |
| 2026-04-30 10:11 | 68.15506 | -177.25708 | 18943 ft | 219 kts | 133° |
| 2026-04-30 10:11 | 68.14459 | -177.22745 | 18943 ft | 219 kts | 133° |
| 2026-04-30 10:11 | 68.13412 | -177.19786 | 18943 ft | 219 kts | 133° |
| 2026-04-30 10:11 | 68.12362 | -177.16823 | 18944 ft | 219 kts | 133° |
| 2026-04-30 10:12 | 68.11314 | -177.13869 | 18939 ft | 219 kts | 134° |
| 2026-04-30 10:12 | 68.10266 | -177.10919 | 18939 ft | 218 kts | 134° |
| 2026-04-30 10:12 | 68.09217 | -177.07973 | 18939 ft | 218 kts | 134° |
| 2026-04-30 10:12 | 68.08169 | -177.05031 | 18939 ft | 218 kts | 134° |
| 2026-04-30 10:13 | 68.07123 | -177.02099 | 18939 ft | 218 kts | 134° |
| 2026-04-30 10:13 | 68.06076 | -176.99169 | 18939 ft | 218 kts | 134° |
| 2026-04-30 10:13 | 68.05030 | -176.96245 | 18936 ft | 218 kts | 134° |
| 2026-04-30 10:13 | 68.03981 | -176.93317 | 18936 ft | 218 kts | 134° |
| 2026-04-30 10:14 | 68.02934 | -176.90400 | 18933 ft | 218 kts | 134° |
| 2026-04-30 10:14 | 68.01884 | -176.87478 | 18933 ft | 218 kts | 134° |
| 2026-04-30 10:14 | 67.99787 | -176.81653 | 18934 ft | 218 kts | 134° |
| 2026-04-30 10:15 | 67.98738 | -176.78750 | 18930 ft | 218 kts | 134° |
| 2026-04-30 10:15 | 67.97687 | -176.75839 | 18930 ft | 218 kts | 134° |
| 2026-04-30 10:15 | 67.96651 | -176.72977 | 18930 ft | 218 kts | 134° |
| 2026-04-30 10:15 | 67.95598 | -176.70067 | 18930 ft | 217 kts | 134° |
| 2026-04-30 10:16 | 67.94545 | -176.67166 | 18933 ft | 217 kts | 134° |
| 2026-04-30 10:16 | 67.93496 | -176.64280 | 18933 ft | 218 kts | 134° |
| 2026-04-30 10:16 | 67.92443 | -176.61385 | 18933 ft | 218 kts | 134° |
| 2026-04-30 10:17 | 67.90339 | -176.55610 | 18928 ft | 218 kts | 134° |
| 2026-04-30 10:17 | 67.88226 | -176.49838 | 18928 ft | 218 kts | 134° |
| 2026-04-30 10:17 | 67.87170 | -176.46954 | 18928 ft | 218 kts | 134° |
| 2026-04-30 10:18 | 67.86113 | -176.44074 | 18928 ft | 218 kts | 134° |
| 2026-04-30 10:18 | 67.85058 | -176.41199 | 18928 ft | 217 kts | 135° |
| 2026-04-30 10:18 | 67.84001 | -176.38329 | 18928 ft | 217 kts | 135° |
| 2026-04-30 10:19 | 67.81885 | -176.32588 | 18935 ft | 218 kts | 135° |
| 2026-04-30 10:19 | 67.80826 | -176.29724 | 18934 ft | 218 kts | 135° |
| 2026-04-30 10:19 | 67.79768 | -176.26864 | 18934 ft | 218 kts | 135° |
| 2026-04-30 10:19 | 67.78709 | -176.24004 | 18923 ft | 217 kts | 135° |
| 2026-04-30 10:20 | 67.77652 | -176.21154 | 18923 ft | 217 kts | 135° |
| 2026-04-30 10:20 | 67.75538 | -176.15468 | 18920 ft | 217 kts | 135° |
| 2026-04-30 10:20 | 67.74481 | -176.12630 | 18920 ft | 217 kts | 135° |
| 2026-04-30 10:21 | 67.73423 | -176.09794 | 18921 ft | 217 kts | 135° |
| 2026-04-30 10:21 | 67.72365 | -176.06960 | 18920 ft | 217 kts | 135° |
| 2026-04-30 10:21 | 67.71307 | -176.04130 | 18920 ft | 217 kts | 135° |
| 2026-04-30 10:21 | 67.70250 | -176.01308 | 18920 ft | 217 kts | 135° |
| 2026-04-30 10:22 | 67.69189 | -175.98481 | 18920 ft | 217 kts | 135° |
| 2026-04-30 10:22 | 67.68140 | -175.95641 | 18920 ft | 217 kts | 135° |
| 2026-04-30 10:22 | 67.67096 | -175.92777 | 18919 ft | 217 kts | 135° |
| 2026-04-30 10:22 | 67.66051 | -175.89927 | 18911 ft | 217 kts | 135° |
| 2026-04-30 10:23 | 67.65001 | -175.87079 | 18914 ft | 217 kts | 135° |
| 2026-04-30 10:23 | 67.63954 | -175.84241 | 18914 ft | 217 kts | 135° |
| 2026-04-30 10:23 | 67.62915 | -175.81427 | 18914 ft | 217 kts | 135° |
| 2026-04-30 10:23 | 67.61853 | -175.78554 | 18912 ft | 217 kts | 135° |
| 2026-04-30 10:24 | 67.60801 | -175.75715 | 18912 ft | 217 kts | 135° |
| 2026-04-30 10:24 | 67.59752 | -175.72885 | 18912 ft | 216 kts | 135° |
| 2026-04-30 10:24 | 67.58702 | -175.70057 | 18912 ft | 216 kts | 135° |
| 2026-04-30 10:24 | 67.57651 | -175.67228 | 18912 ft | 216 kts | 135° |
| 2026-04-30 10:25 | 67.56600 | -175.64404 | 18909 ft | 217 kts | 135° |
| 2026-04-30 10:25 | 67.55548 | -175.61584 | 18909 ft | 217 kts | 135° |
| 2026-04-30 10:25 | 67.54507 | -175.58798 | 18909 ft | 217 kts | 135° |
| 2026-04-30 10:25 | 67.53441 | -175.55946 | 18904 ft | 217 kts | 135° |
| 2026-04-30 10:26 | 67.52401 | -175.53164 | 18904 ft | 217 kts | 135° |
| 2026-04-30 10:26 | 67.51349 | -175.50358 | 18904 ft | 217 kts | 135° |
| 2026-04-30 10:26 | 67.50293 | -175.47545 | 18904 ft | 217 kts | 135° |
| 2026-04-30 10:26 | 67.49210 | -175.44731 | 18904 ft | 217 kts | 136° |
| 2026-04-30 10:27 | 67.48140 | -175.41978 | 18906 ft | 216 kts | 136° |
| 2026-04-30 10:27 | 67.47084 | -175.39244 | 18913 ft | 216 kts | 136° |
| 2026-04-30 10:27 | 67.46020 | -175.36483 | 18907 ft | 216 kts | 135° |
| 2026-04-30 10:27 | 67.44951 | -175.33724 | 18907 ft | 216 kts | 135° |
| 2026-04-30 10:28 | 67.43887 | -175.30979 | 18907 ft | 216 kts | 135° |
| 2026-04-30 10:28 | 67.42821 | -175.28233 | 18907 ft | 215 kts | 135° |
| 2026-04-30 10:28 | 67.41752 | -175.25483 | 18908 ft | 216 kts | 135° |
| 2026-04-30 10:28 | 67.40684 | -175.22738 | 18908 ft | 216 kts | 135° |
| 2026-04-30 10:29 | 67.39616 | -175.19996 | 18897 ft | 216 kts | 135° |
| 2026-04-30 10:29 | 67.38546 | -175.17254 | 18896 ft | 216 kts | 135° |
| 2026-04-30 10:29 | 67.37480 | -175.14525 | 18896 ft | 215 kts | 135° |
| 2026-04-30 10:29 | 67.36413 | -175.11795 | 18897 ft | 215 kts | 136° |
| 2026-04-30 10:30 | 67.35344 | -175.09069 | 18893 ft | 215 kts | 136° |
| 2026-04-30 10:30 | 67.34273 | -175.06339 | 18893 ft | 215 kts | 136° |
| 2026-04-30 10:30 | 67.33205 | -175.03622 | 18893 ft | 216 kts | 136° |
| 2026-04-30 10:30 | 67.32133 | -175.00894 | 18894 ft | 216 kts | 136° |
| 2026-04-30 10:31 | 67.31062 | -174.98177 | 18897 ft | 216 kts | 136° |
| 2026-04-30 10:31 | 67.29990 | -174.95456 | 18897 ft | 216 kts | 136° |
| 2026-04-30 10:31 | 67.28913 | -174.92729 | 18897 ft | 216 kts | 136° |
| 2026-04-30 10:31 | 67.27841 | -174.90016 | 18897 ft | 216 kts | 136° |
| 2026-04-30 10:32 | 67.26766 | -174.87301 | 18886 ft | 216 kts | 136° |
| 2026-04-30 10:32 | 67.25692 | -174.84593 | 18886 ft | 216 kts | 136° |
| 2026-04-30 10:32 | 67.24616 | -174.81882 | 18886 ft | 216 kts | 136° |
| 2026-04-30 10:32 | 67.23542 | -174.79180 | 18886 ft | 216 kts | 136° |
| 2026-04-30 10:33 | 67.22468 | -174.76480 | 18886 ft | 216 kts | 136° |
| 2026-04-30 10:33 | 67.21392 | -174.73783 | 18886 ft | 216 kts | 136° |
| 2026-04-30 10:33 | 67.20314 | -174.71081 | 18886 ft | 216 kts | 136° |
| 2026-04-30 10:33 | 67.19238 | -174.68387 | 18883 ft | 215 kts | 136° |
| 2026-04-30 10:34 | 67.18162 | -174.65697 | 18883 ft | 216 kts | 136° |
| 2026-04-30 10:34 | 67.17099 | -174.63043 | 18883 ft | 216 kts | 136° |
| 2026-04-30 10:34 | 67.16022 | -174.60360 | 18883 ft | 216 kts | 136° |
| 2026-04-30 10:34 | 67.14945 | -174.57676 | 18883 ft | 216 kts | 136° |
| 2026-04-30 10:35 | 67.13866 | -174.54994 | 18874 ft | 216 kts | 136° |
| 2026-04-30 10:35 | 67.12786 | -174.52312 | 18875 ft | 215 kts | 136° |
| 2026-04-30 10:35 | 67.11709 | -174.49644 | 18881 ft | 215 kts | 135° |
| 2026-04-30 10:35 | 67.10630 | -174.46971 | 18881 ft | 215 kts | 136° |
| 2026-04-30 10:36 | 67.09535 | -174.44277 | 18881 ft | 215 kts | 136° |
| 2026-04-30 10:36 | 67.08471 | -174.41662 | 18881 ft | 215 kts | 136° |
| 2026-04-30 10:36 | 67.07390 | -174.39008 | 18881 ft | 215 kts | 136° |
| 2026-04-30 10:36 | 67.06308 | -174.36354 | 18881 ft | 215 kts | 136° |
| 2026-04-30 10:37 | 67.05579 | -174.34564 | 18881 ft | 215 kts | 136° |
| 2026-04-30 10:37 | 67.04142 | -174.31045 | 18878 ft | 215 kts | 136° |
| 2026-04-30 10:37 | 67.03061 | -174.28404 | 18878 ft | 216 kts | 136° |
| 2026-04-30 10:37 | 67.01975 | -174.25754 | 18879 ft | 215 kts | 136° |
| 2026-04-30 10:38 | 67.00892 | -174.23112 | 18879 ft | 215 kts | 136° |
| 2026-04-30 10:38 | 67.00159 | -174.21328 | 18870 ft | 215 kts | 136° |
| 2026-04-30 10:38 | 66.99076 | -174.18687 | 18871 ft | 216 kts | 136° |
| 2026-04-30 10:38 | 66.97989 | -174.16052 | 18871 ft | 215 kts | 136° |
| 2026-04-30 10:39 | 66.96901 | -174.13416 | 18871 ft | 215 kts | 136° |
| 2026-04-30 10:39 | 66.95815 | -174.10784 | 18870 ft | 215 kts | 136° |
| 2026-04-30 10:39 | 66.94731 | -174.08159 | 18870 ft | 215 kts | 136° |
| 2026-04-30 10:39 | 66.93644 | -174.05531 | 18870 ft | 215 kts | 136° |
| 2026-04-30 10:40 | 66.92571 | -174.02942 | 18870 ft | 215 kts | 136° |
| 2026-04-30 10:40 | 66.91485 | -174.00324 | 18870 ft | 215 kts | 136° |
| 2026-04-30 10:40 | 66.90396 | -173.97702 | 18870 ft | 215 kts | 136° |
| 2026-04-30 10:40 | 66.89310 | -173.95090 | 18870 ft | 215 kts | 136° |
| 2026-04-30 10:41 | 66.88220 | -173.92473 | 18871 ft | 215 kts | 136° |
| 2026-04-30 10:41 | 66.87132 | -173.89864 | 18862 ft | 215 kts | 136° |
| 2026-04-30 10:41 | 66.86043 | -173.87256 | 18862 ft | 215 kts | 136° |
| 2026-04-30 10:41 | 66.84955 | -173.84652 | 18862 ft | 215 kts | 136° |
| 2026-04-30 10:42 | 66.83864 | -173.82046 | 18862 ft | 215 kts | 136° |
| 2026-04-30 10:42 | 66.82774 | -173.79444 | 18862 ft | 215 kts | 136° |
| 2026-04-30 10:42 | 66.81697 | -173.76880 | 18862 ft | 215 kts | 136° |
| 2026-04-30 10:42 | 66.80594 | -173.74255 | 18859 ft | 215 kts | 135° |
| 2026-04-30 10:43 | 66.79518 | -173.71693 | 18860 ft | 215 kts | 136° |
| 2026-04-30 10:43 | 66.78429 | -173.69110 | 18860 ft | 214 kts | 136° |
| 2026-04-30 10:43 | 66.77338 | -173.66525 | 18860 ft | 214 kts | 136° |
| 2026-04-30 10:43 | 66.76253 | -173.63956 | 18862 ft | 214 kts | 135° |
| 2026-04-30 10:44 | 66.75162 | -173.61375 | 18858 ft | 214 kts | 135° |
| 2026-04-30 10:44 | 66.74072 | -173.58802 | 18854 ft | 214 kts | 135° |
| 2026-04-30 10:44 | 66.72986 | -173.56238 | 18856 ft | 214 kts | 135° |
| 2026-04-30 10:44 | 66.71898 | -173.53676 | 18854 ft | 214 kts | 135° |
| 2026-04-30 10:45 | 66.70811 | -173.51109 | 18854 ft | 213 kts | 135° |
| 2026-04-30 10:45 | 66.69727 | -173.48553 | 18855 ft | 213 kts | 135° |
| 2026-04-30 10:45 | 66.68636 | -173.45986 | 18854 ft | 213 kts | 136° |
| 2026-04-30 10:45 | 66.67547 | -173.43432 | 18855 ft | 213 kts | 136° |
| 2026-04-30 10:46 | 66.66459 | -173.40879 | 18855 ft | 214 kts | 136° |
| 2026-04-30 10:46 | 66.65383 | -173.38355 | 18855 ft | 214 kts | 136° |
| 2026-04-30 10:46 | 66.64280 | -173.35773 | 18855 ft | 213 kts | 136° |
| 2026-04-30 10:46 | 66.63192 | -173.33231 | 18854 ft | 213 kts | 136° |
| 2026-04-30 10:47 | 66.62105 | -173.30693 | 18849 ft | 213 kts | 136° |
| 2026-04-30 10:47 | 66.61030 | -173.28183 | 18849 ft | 213 kts | 136° |
| 2026-04-30 10:47 | 66.59937 | -173.25641 | 18846 ft | 213 kts | 136° |
| 2026-04-30 10:47 | 66.58847 | -173.23105 | 18847 ft | 213 kts | 136° |
| 2026-04-30 10:48 | 66.57756 | -173.20572 | 18846 ft | 214 kts | 136° |
| 2026-04-30 10:48 | 66.56665 | -173.18039 | 18846 ft | 213 kts | 136° |
| 2026-04-30 10:48 | 66.55574 | -173.15513 | 18847 ft | 213 kts | 136° |
| 2026-04-30 10:48 | 66.54486 | -173.12979 | 18847 ft | 214 kts | 136° |
| 2026-04-30 10:49 | 66.53396 | -173.10441 | 18846 ft | 214 kts | 136° |
| 2026-04-30 10:49 | 66.52307 | -173.07914 | 18846 ft | 214 kts | 136° |
| 2026-04-30 10:49 | 66.51215 | -173.05382 | 18847 ft | 214 kts | 136° |
| 2026-04-30 10:49 | 66.50122 | -173.02849 | 18846 ft | 214 kts | 136° |
| 2026-04-30 10:50 | 66.49031 | -173.00325 | 18846 ft | 213 kts | 136° |
| 2026-04-30 10:50 | 66.47941 | -172.97807 | 18845 ft | 213 kts | 136° |
| 2026-04-30 10:50 | 66.46847 | -172.95288 | 18840 ft | 213 kts | 136° |
| 2026-04-30 10:50 | 66.45758 | -172.92776 | 18840 ft | 213 kts | 136° |
| 2026-04-30 10:51 | 66.44668 | -172.90265 | 18842 ft | 213 kts | 136° |
| 2026-04-30 10:51 | 66.43575 | -172.87750 | 18842 ft | 213 kts | 136° |
| 2026-04-30 10:51 | 66.42485 | -172.85250 | 18841 ft | 213 kts | 136° |
| 2026-04-30 10:51 | 66.41409 | -172.82783 | 18842 ft | 213 kts | 136° |
| 2026-04-30 10:52 | 66.40318 | -172.80284 | 18849 ft | 213 kts | 135° |
| 2026-04-30 10:52 | 66.39223 | -172.77781 | 18838 ft | 213 kts | 135° |
| 2026-04-30 10:52 | 66.38135 | -172.75293 | 18839 ft | 212 kts | 135° |
| 2026-04-30 10:52 | 66.37046 | -172.72810 | 18838 ft | 212 kts | 135° |
| 2026-04-30 10:53 | 66.35959 | -172.70330 | 18839 ft | 213 kts | 135° |
| 2026-04-30 10:53 | 66.34869 | -172.67849 | 18839 ft | 212 kts | 135° |
| 2026-04-30 10:53 | 66.33775 | -172.65363 | 18841 ft | 212 kts | 135° |
| 2026-04-30 10:53 | 66.32686 | -172.62889 | 18837 ft | 212 kts | 135° |
| 2026-04-30 10:54 | 66.31592 | -172.60408 | 18833 ft | 212 kts | 135° |
| 2026-04-30 10:54 | 66.30503 | -172.57943 | 18833 ft | 212 kts | 135° |
| 2026-04-30 10:54 | 66.29412 | -172.55472 | 18833 ft | 211 kts | 135° |
| 2026-04-30 10:54 | 66.28326 | -172.53008 | 18832 ft | 212 kts | 135° |
| 2026-04-30 10:55 | 66.27236 | -172.50541 | 18832 ft | 212 kts | 135° |
| 2026-04-30 10:55 | 66.26148 | -172.48081 | 18833 ft | 212 kts | 135° |
| 2026-04-30 10:55 | 66.25057 | -172.45623 | 18831 ft | 212 kts | 135° |
| 2026-04-30 10:55 | 66.23965 | -172.43160 | 18834 ft | 212 kts | 135° |
| 2026-04-30 10:56 | 66.22872 | -172.40697 | 18833 ft | 212 kts | 135° |
| 2026-04-30 10:56 | 66.21779 | -172.38238 | 18833 ft | 212 kts | 135° |
| 2026-04-30 10:56 | 66.20712 | -172.35712 | 18832 ft | 212 kts | 133° |
| 2026-04-30 10:56 | 66.19664 | -172.33153 | 18835 ft | 212 kts | 133° |
| 2026-04-30 10:57 | 66.18607 | -172.30616 | 18827 ft | 212 kts | 134° |
| 2026-04-30 10:57 | 66.17546 | -172.28088 | 18829 ft | 212 kts | 134° |
| 2026-04-30 10:57 | 66.16480 | -172.25553 | 18829 ft | 212 kts | 134° |
| 2026-04-30 10:57 | 66.15416 | -172.23019 | 18828 ft | 212 kts | 134° |
| 2026-04-30 10:58 | 66.14351 | -172.20486 | 18829 ft | 212 kts | 134° |
| 2026-04-30 10:58 | 66.13288 | -172.17963 | 18820 ft | 212 kts | 134° |
| 2026-04-30 10:58 | 66.12222 | -172.15436 | 18820 ft | 212 kts | 134° |
| 2026-04-30 10:58 | 66.11159 | -172.12916 | 18820 ft | 212 kts | 134° |
| 2026-04-30 10:59 | 66.10098 | -172.10407 | 18821 ft | 212 kts | 134° |
| 2026-04-30 10:59 | 66.09033 | -172.07892 | 18820 ft | 212 kts | 134° |
| 2026-04-30 10:59 | 66.07969 | -172.05382 | 18821 ft | 212 kts | 134° |
| 2026-04-30 10:59 | 66.06900 | -172.02862 | 18817 ft | 212 kts | 134° |
| 2026-04-30 11:00 | 66.05835 | -172.00355 | 18817 ft | 212 kts | 134° |
| 2026-04-30 11:00 | 66.04769 | -171.97847 | 18817 ft | 212 kts | 134° |
| 2026-04-30 11:00 | 66.03703 | -171.95345 | 18819 ft | 212 kts | 134° |
| 2026-04-30 11:00 | 66.02638 | -171.92849 | 18682 ft | 210 kts | 134° |
| 2026-04-30 11:01 | 66.01584 | -171.90381 | 18219 ft | 209 kts | 134° |
| 2026-04-30 11:01 | 66.00530 | -171.87912 | 17704 ft | 209 kts | 134° |
| 2026-04-30 11:01 | 65.99485 | -171.85471 | 17229 ft | 206 kts | 134° |
| 2026-04-30 11:01 | 65.98452 | -171.83061 | 16756 ft | 204 kts | 134° |
| 2026-04-30 11:02 | 65.97440 | -171.80700 | 16297 ft | 203 kts | 134° |
| 2026-04-30 11:02 | 65.96420 | -171.78329 | 15830 ft | 201 kts | 134° |
| 2026-04-30 11:02 | 65.95406 | -171.75969 | 15367 ft | 200 kts | 134° |
| 2026-04-30 11:02 | 65.94398 | -171.73623 | 14905 ft | 199 kts | 135° |
| 2026-04-30 11:03 | 65.93392 | -171.71286 | 14441 ft | 199 kts | 135° |
| 2026-04-30 11:03 | 65.92389 | -171.68970 | 13983 ft | 198 kts | 135° |
| 2026-04-30 11:03 | 65.91392 | -171.66668 | 13521 ft | 197 kts | 135° |
| 2026-04-30 11:04 | 65.89427 | -171.62111 | 12619 ft | 192 kts | 135° |
| 2026-04-30 11:04 | 65.88457 | -171.59874 | 12169 ft | 191 kts | 135° |
| 2026-04-30 11:04 | 65.87566 | -171.57819 | 11036 ft | 190 kts | 135° |
| 2026-04-30 11:04 | 65.86629 | -171.55654 | 11703 ft | 180 kts | 137° |
| 2026-04-30 11:05 | 65.85693 | -171.53507 | 11068 ft | 192 kts | 135° |
| 2026-04-30 11:05 | 65.84693 | -171.51204 | 10437 ft | 197 kts | 135° |
| 2026-04-30 11:05 | 65.83701 | -171.48935 | 9986 ft | 194 kts | 135° |
| 2026-04-30 11:05 | 65.82727 | -171.46703 | 9531 ft | 191 kts | 134° |
| 2026-04-30 11:06 | 65.81767 | -171.44501 | 9097 ft | 188 kts | 135° |
| 2026-04-30 11:06 | 65.80821 | -171.42341 | 8669 ft | 185 kts | 135° |
| 2026-04-30 11:06 | 65.79885 | -171.40201 | 8240 ft | 183 kts | 135° |
| 2026-04-30 11:06 | 65.78962 | -171.38083 | 7817 ft | 182 kts | 135° |
| 2026-04-30 11:07 | 65.78033 | -171.35968 | 7394 ft | 182 kts | 135° |
| 2026-04-30 11:07 | 65.77109 | -171.33864 | 6971 ft | 182 kts | 135° |
| 2026-04-30 11:07 | 65.76186 | -171.31763 | 6550 ft | 182 kts | 135° |
| 2026-04-30 11:07 | 65.75262 | -171.29662 | 6123 ft | 181 kts | 136° |
| 2026-04-30 11:08 | 65.74345 | -171.27579 | 5699 ft | 179 kts | 135° |
| 2026-04-30 11:08 | 65.73438 | -171.25520 | 5282 ft | 178 kts | 136° |
| 2026-04-30 11:08 | 65.72546 | -171.23497 | 4876 ft | 177 kts | 135° |
| 2026-04-30 11:08 | 65.71708 | -171.21602 | 4490 ft | 177 kts | 135° |
| 2026-04-30 11:09 | 65.70870 | -171.19705 | 4107 ft | 177 kts | 135° |
| 2026-04-30 11:09 | 65.69973 | -171.17679 | 3698 ft | 176 kts | 135° |
| 2026-04-30 11:09 | 65.69099 | -171.15705 | 3512 ft | 168 kts | 135° |
| 2026-04-30 11:09 | 65.68238 | -171.13758 | 3116 ft | 169 kts | 135° |
| 2026-04-30 11:10 | 65.67379 | -171.11825 | 2723 ft | 168 kts | 135° |
| 2026-04-30 11:10 | 65.66524 | -171.09899 | 2333 ft | 167 kts | 134° |
| 2026-04-30 11:10 | 65.65555 | -171.08391 | 1947 ft | 166 kts | 152° |
| 2026-04-30 11:10 | 65.64586 | -171.07329 | 1587 ft | 166 kts | 149° |
| 2026-04-30 11:11 | 65.63554 | -171.06139 | 1391 ft | 159 kts | 151° |
| 2026-04-30 11:11 | 65.62521 | -171.04946 | 852 ft | 171 kts | 150° |
| 2026-04-30 11:11 | 65.61484 | -171.03788 | 667 ft | 154 kts | 150° |
| 2026-04-30 11:11 | 65.60571 | -171.02756 | 450 ft | 139 kts | 147° |
| 2026-04-30 11:12 | 65.59781 | -171.01851 | 279 ft | 132 kts | 147° |
| 2026-04-30 11:12 | 65.58975 | -171.00934 | 110 ft | 124 kts | 148° |
| 2026-04-30 11:12 | 65.58218 | -171.00097 | 10 ft | 111 kts | 147° |
| 2026-04-30 11:12 | 65.57652 | -170.99335 | 53 ft | 74 kts | 133° |
| 2026-04-30 11:13 | 65.57394 | -170.98917 | 7 ft | 12 kts | 186° |
| 2026-04-30 11:13 | 65.57427 | -170.99104 | 7 ft | 22 kts | 317° |
| 2026-04-30 11:13 | 65.57612 | -170.99372 | 6 ft | 38 kts | 336° |
| 2026-04-30 11:13 | 65.57856 | -170.99635 | 11 ft | 35 kts | 335° |
| 2026-04-30 11:14 | 65.58066 | -170.99875 | 7 ft | 32 kts | 332° |
| 2026-04-30 11:14 | 65.58262 | -171.00109 | 10 ft | 32 kts | 334° |
| 2026-04-30 11:14 | 65.58467 | -171.00349 | 6 ft | 30 kts | 330° |
| 2026-04-30 11:14 | 65.58518 | -171.00598 | 7 ft | 10 kts | 239° |
| 2026-04-30 11:15 | 65.58491 | -171.00559 | 7 ft | 0 kts | 63° |